Time;durP1;ratioP1;P1;durP2;ratioP2;P2;SDS_P1;SDS_P2;PMS_P1;PMS_P2;Temp;Humidity;BMP_temperature;BMP_pressure;BME280_temperature;BME280_humidity;BME280_pressure;Samples;Min_cycle;Max_cycle;Signal;HPM_P1;HPM_P2
2021/08/24 00:00:09;;;;;;;6.15;1.85;;;;;;;26.93;40.73;102331.00;4405696;32;20439;-68
2021/08/24 00:02:34;;;;;;;2.65;1.75;;;;;;;27.14;40.73;102329.56;4400488;32;20035;-68
2021/08/24 00:05:00;;;;;;;3.67;2.30;;;;;;;27.03;40.95;102337.38;4403587;32;20061;-68
2021/08/24 00:07:26;;;;;;;3.00;1.98;;;;;;;26.90;41.61;102334.91;4406417;32;20049;-68
2021/08/24 00:09:51;;;;;;;5.80;3.00;;;;;;;26.78;41.84;102336.13;4406035;32;20096;-68
2021/08/24 00:12:17;;;;;;;4.97;2.70;;;;;;;26.85;41.51;102347.22;4404183;32;20497;-68
2021/08/24 00:14:43;;;;;;;7.32;3.17;;;;;;;26.81;41.69;102345.88;4404352;32;20095;-68
2021/08/24 00:17:08;;;;;;;7.00;3.08;;;;;;;26.84;41.76;102350.62;4391746;32;20061;-68
2021/08/24 00:19:34;;;;;;;4.95;3.00;;;;;;;26.79;41.90;102354.28;4402676;32;20399;-68
2021/08/24 00:21:59;;;;;;;5.85;2.78;;;;;;;26.98;41.52;102350.47;4403701;32;20035;-68
2021/08/24 00:24:26;;;;;;;5.65;2.42;;;;;;;26.79;42.12;102349.25;4405081;32;20093;-68
2021/08/24 00:26:51;;;;;;;5.87;2.83;;;;;;;26.88;41.69;102342.53;4402417;32;20069;-68
2021/08/24 00:29:17;;;;;;;5.60;2.15;;;;;;;26.88;41.71;102343.28;4403660;32;20476;-68
2021/08/24 00:31:43;;;;;;;4.80;1.80;;;;;;;26.79;41.99;102337.72;4402404;32;20050;-68
2021/08/24 00:34:08;;;;;;;5.65;2.22;;;;;;;26.80;41.86;102338.50;4403376;32;20026;-68
2021/08/24 00:36:34;;;;;;;3.83;1.90;;;;;;;26.84;41.96;102342.75;4401256;32;20073;-68
2021/08/24 00:39:01;;;;;;;2.55;1.90;;;;;;;26.72;42.28;102340.31;4403324;32;20025;-68
2021/08/24 00:41:28;;;;;;;4.40;2.20;;;;;;;26.74;42.43;102341.38;4406632;32;20057;-68
2021/08/24 00:43:54;;;;;;;6.40;2.40;;;;;;;26.62;42.94;102333.09;4405441;32;20441;-68
2021/08/24 00:46:32;;;;;;;3.67;2.10;;;;;;;26.51;43.20;102330.12;4402822;32;20078;-68
2021/08/24 00:49:03;;;;;;;4.22;2.50;;;;;;;26.65;43.16;102332.88;4403715;32;20050;-68
2021/08/24 00:51:32;;;;;;;7.82;2.67;;;;;;;26.44;43.93;102328.47;4402571;32;20212;-68
2021/08/24 00:53:59;;;;;;;4.37;1.98;;;;;;;26.41;44.65;102329.50;4402176;32;20055;-68
2021/08/24 00:56:25;;;;;;;3.00;1.77;;;;;;;26.26;44.82;102328.06;4402756;32;20091;-68
2021/08/24 00:58:50;;;;;;;3.95;1.62;;;;;;;26.15;45.76;102320.06;4403581;32;20061;-68
2021/08/24 01:01:16;;;;;;;3.03;1.35;;;;;;;26.10;45.58;102335.22;4403566;32;20100;-68
2021/08/24 01:03:45;;;;;;;5.37;2.17;;;;;;;25.98;45.38;102329.88;4406516;32;20078;-68
2021/08/24 01:15:05;;;;;;;4.22;1.73;;;;;;;26.68;44.93;102322.41;3984465;32;15056062;-67
2021/08/24 01:17:46;;;;;;;4.35;1.60;;;;;;;26.68;44.93;102322.41;4435714;32;20532;-69
2021/08/24 01:34:01;;;;;;;2.75;1.45;;;;;;;26.48;44.29;102313.81;3985770;32;15024117;-68
2021/08/24 01:36:33;;;;;;;2.62;1.52;;;;;;;26.42;44.93;102313.75;4439098;32;20045;-69
2021/08/24 01:44:41;;;;;;;2.22;1.62;;;;;;;26.52;45.71;102323.84;3984154;32;15022704;-68
2021/08/24 01:47:19;;;;;;;4.70;1.70;;;;;;;26.52;45.71;102323.84;4440091;32;20089;-68
2021/08/24 01:49:52;;;;;;;3.97;1.75;;;;;;;25.99;46.86;102317.81;4438295;32;20088;-69
2021/08/24 01:52:22;;;;;;;2.95;1.45;;;;;;;25.90;47.08;102309.28;4437507;32;20093;-69
2021/08/24 01:54:57;;;;;;;2.33;1.83;;;;;;;25.88;47.15;102302.44;4440398;32;20044;-69
2021/08/24 01:57:35;;;;;;;6.60;1.40;;;;;;;25.90;46.89;102308.50;4438038;32;20069;-69
2021/08/24 02:00:08;;;;;;;5.22;1.85;;;;;;;25.90;46.82;102312.19;4437664;32;20073;-69
2021/08/24 02:02:41;;;;;;;3.50;2.05;;;;;;;25.91;47.16;102307.19;4438280;32;20201;-70
2021/08/24 02:07:45;;;;;;;3.83;2.03;;;;;;;26.02;46.71;102310.22;3956790;32;15726600;-68
2021/08/24 02:10:18;;;;;;;4.78;2.10;;;;;;;26.02;46.71;102310.22;4434628;32;20034;-67
2021/08/24 02:12:47;;;;;;;3.50;2.25;;;;;;;26.02;46.65;102308.16;4433915;32;20414;-67
2021/08/24 02:15:15;;;;;;;3.90;1.70;;;;;;;26.07;46.31;102303.72;4435012;32;20080;-68
2021/08/24 02:17:45;;;;;;;2.22;1.60;;;;;;;26.15;46.07;102314.31;4436819;32;20083;-69
2021/08/24 02:22:53;;;;;;;2.67;1.90;;;;;;;26.68;44.81;102308.75;3977910;31;15710826;-69
2021/08/24 02:25:25;;;;;;;4.32;1.80;;;;;;;26.68;44.81;102308.75;4453941;32;20041;-69
2021/08/24 02:27:58;;;;;;;3.67;1.73;;;;;;;26.23;45.09;102306.75;4454825;32;20095;-69
2021/08/24 02:30:25;;;;;;;2.80;1.83;;;;;;;26.25;45.05;102312.81;4455782;32;20346;-69
2021/08/24 02:32:52;;;;;;;4.70;1.73;;;;;;;26.11;45.16;102312.94;4453017;32;20092;-69
2021/08/24 02:38:01;;;;;;;3.08;1.50;;;;;;;26.81;44.17;102328.53;3984654;32;15025133;-68
2021/08/24 02:46:05;;;;;;;6.62;1.70;;;;;;;26.59;44.56;102316.78;3999030;31;15019125;-69
2021/08/24 02:48:33;;;;;;;3.37;1.30;;;;;;;26.59;44.56;102316.78;4450880;32;20091;-69
2021/08/24 02:50:59;;;;;;;3.20;1.52;;;;;;;26.16;44.86;102320.84;4449818;32;20879;-69
2021/08/24 02:53:26;;;;;;;2.95;1.85;;;;;;;25.82;45.62;102307.34;4453987;32;20459;-69
2021/08/24 02:55:52;;;;;;;2.85;1.83;;;;;;;25.92;45.58;102305.91;4450117;32;20113;-69
2021/08/24 02:58:18;;;;;;;4.87;2.33;;;;;;;25.96;45.58;102304.37;4446054;32;20103;-69
2021/08/24 03:00:46;;;;;;;6.93;2.42;;;;;;;26.02;45.23;102311.03;4449259;32;20442;-69
2021/08/24 03:03:12;;;;;;;7.45;3.15;;;;;;;26.00;45.11;102315.72;4451777;32;20053;-69
2021/08/24 03:05:41;;;;;;;7.22;2.58;;;;;;;26.09;45.35;102315.53;4446558;32;20100;-69
2021/08/24 03:08:09;;;;;;;6.05;3.40;;;;;;;26.11;45.48;102316.59;4451920;32;20036;-69
2021/08/24 03:10:38;;;;;;;9.45;3.42;;;;;;;26.34;45.06;102318.41;4446162;32;20408;-69
2021/08/24 03:18:36;;;;;;;9.43;5.20;;;;;;;26.68;44.72;102319.50;3991479;31;15018352;-69
2021/08/24 03:21:07;;;;;;;8.32;5.32;;;;;;;26.68;44.72;102319.50;4455197;32;20181;-69
2021/08/24 03:23:37;;;;;;;8.15;5.03;;;;;;;26.08;45.38;102320.50;4454619;32;20087;-70
2021/08/24 03:26:03;;;;;;;11.77;5.30;;;;;;;26.06;45.72;102319.44;4452105;32;20033;-69
2021/08/24 03:28:29;;;;;;;7.93;5.62;;;;;;;25.83;46.05;102311.84;4447500;32;20378;-69
2021/08/24 03:30:55;;;;;;;8.57;5.35;;;;;;;25.66;46.47;102308.75;4450014;32;20033;-69
2021/08/24 03:33:21;;;;;;;9.38;5.18;;;;;;;25.74;46.47;102318.53;4451532;32;20022;-69
2021/08/24 03:35:46;;;;;;;8.32;5.05;;;;;;;25.62;46.36;102322.63;4451469;32;20093;-69
2021/08/24 03:38:12;;;;;;;10.13;5.53;;;;;;;25.55;46.85;102316.50;4449741;32;20492;-69
2021/08/24 03:40:38;;;;;;;11.30;5.55;;;;;;;25.63;46.99;102320.50;4449593;32;20096;-68
2021/08/24 03:43:05;;;;;;;11.48;5.75;;;;;;;25.61;47.28;102321.00;4450666;32;20101;-68
2021/08/24 03:45:31;;;;;;;12.70;5.03;;;;;;;25.66;47.29;102313.72;4451229;32;20034;-68
2021/08/24 03:47:56;;;;;;;12.43;5.87;;;;;;;25.62;47.36;102310.28;4452011;32;20042;-68
2021/08/24 03:50:23;;;;;;;16.75;8.75;;;;;;;25.59;47.75;102308.41;4452066;32;20530;-68
2021/08/24 03:52:50;;;;;;;16.33;8.25;;;;;;;25.61;47.44;102306.59;4452894;32;20076;-68
2021/08/24 03:55:16;;;;;;;22.70;9.52;;;;;;;25.52;47.58;102306.75;4453666;32;20112;-68
2021/08/24 03:57:44;;;;;;;24.17;9.88;;;;;;;25.53;47.73;102313.31;4448700;32;20131;-68
2021/08/24 04:00:10;;;;;;;24.67;8.73;;;;;;;25.50;47.67;102317.19;4449288;32;20127;-68
2021/08/24 04:02:36;;;;;;;21.25;8.65;;;;;;;25.49;47.66;102322.16;4452266;32;20073;-68
2021/08/24 04:05:03;;;;;;;22.05;8.77;;;;;;;25.56;47.06;102315.19;4453050;32;20084;-68
2021/08/24 04:07:30;;;;;;;16.33;7.75;;;;;;;25.59;47.57;102314.16;4449716;32;20347;-68
2021/08/24 04:09:56;;;;;;;18.60;7.60;;;;;;;25.64;47.47;102311.34;4448605;32;20085;-68
2021/08/24 04:12:22;;;;;;;20.55;7.10;;;;;;;25.65;47.00;102315.84;4448661;32;20400;-68
2021/08/24 04:14:48;;;;;;;18.00;7.57;;;;;;;25.59;46.94;102309.22;4453314;32;20064;-68
2021/08/24 04:17:15;;;;;;;17.55;7.22;;;;;;;25.40;47.64;102307.91;4454915;32;20471;-68
2021/08/24 04:19:41;;;;;;;14.07;5.68;;;;;;;25.52;47.82;102308.84;4451057;32;20048;-68
2021/08/24 04:22:09;;;;;;;9.45;4.57;;;;;;;25.56;47.28;102312.28;4449278;32;20097;-68
2021/08/24 04:24:36;;;;;;;7.47;4.45;;;;;;;25.76;46.93;102315.94;4451016;32;20044;-68
2021/08/24 04:27:02;;;;;;;6.75;3.65;;;;;;;25.47;47.01;102315.31;4447298;32;20098;-68
2021/08/24 04:29:28;;;;;;;9.45;5.35;;;;;;;25.41;47.28;102323.09;4445608;32;20092;-68
2021/08/24 04:31:55;;;;;;;8.45;5.35;;;;;;;25.30;47.19;102326.59;4441862;32;20073;-68
2021/08/24 04:34:21;;;;;;;9.70;6.55;;;;;;;25.22;47.16;102323.34;4440479;32;20081;-68
2021/08/24 04:36:47;;;;;;;10.48;7.05;;;;;;;25.26;46.97;102326.84;4437048;32;20386;-68
2021/08/24 04:39:12;;;;;;;16.83;6.72;;;;;;;25.44;46.95;102313.44;4441518;32;20449;-68
2021/08/24 04:41:38;;;;;;;10.88;7.20;;;;;;;25.37;46.99;102312.59;4434999;32;20042;-68
2021/08/24 04:44:04;;;;;;;10.32;6.62;;;;;;;25.42;47.13;102307.38;4437636;32;20390;-68
2021/08/24 04:46:29;;;;;;;11.82;7.65;;;;;;;25.49;46.79;102315.63;4438977;32;20068;-68
2021/08/24 04:48:55;;;;;;;16.80;7.45;;;;;;;25.26;47.04;102309.53;4441510;32;20483;-68
2021/08/24 04:51:21;;;;;;;14.55;7.75;;;;;;;25.49;46.54;102315.63;4436059;32;20101;-68
2021/08/24 04:53:47;;;;;;;13.15;7.10;;;;;;;25.54;46.34;102318.56;4442333;32;20113;-68
2021/08/24 04:56:13;;;;;;;10.45;5.87;;;;;;;25.31;46.90;102316.66;4435576;32;20099;-68
2021/08/24 04:58:38;;;;;;;11.30;6.07;;;;;;;25.37;46.51;102314.66;4441120;32;20448;-69
2021/08/24 05:01:04;;;;;;;8.93;4.97;;;;;;;25.42;46.24;102321.81;4436031;32;20133;-68
2021/08/24 05:03:31;;;;;;;8.57;5.32;;;;;;;25.23;46.24;102319.19;4439148;32;20042;-68
2021/08/24 05:05:57;;;;;;;9.13;5.00;;;;;;;25.51;46.18;102327.44;4435978;32;20048;-68
2021/08/24 05:08:23;;;;;;;9.90;4.95;;;;;;;25.29;46.58;102322.16;4439441;32;20076;-68
2021/08/24 05:10:50;;;;;;;12.75;5.40;;;;;;;25.48;46.17;102317.72;4440249;32;20529;-68
2021/08/24 05:13:15;;;;;;;8.23;4.53;;;;;;;25.47;46.07;102327.66;4440884;32;20060;-68
2021/08/24 05:15:41;;;;;;;9.38;4.62;;;;;;;25.61;45.98;102338.31;4440686;32;20525;-68
2021/08/24 05:18:07;;;;;;;8.90;4.45;;;;;;;25.50;46.34;102343.94;4441041;32;20519;-68
2021/08/24 05:20:33;;;;;;;13.93;4.57;;;;;;;25.56;45.85;102332.47;4437697;32;20160;-68
2021/08/24 05:22:58;;;;;;;6.68;4.32;;;;;;;25.66;46.08;102343.38;4436308;32;20116;-68
2021/08/24 05:25:26;;;;;;;10.73;4.50;;;;;;;25.76;45.87;102329.56;4437649;32;20037;-69
2021/08/24 05:27:52;;;;;;;6.00;3.60;;;;;;;25.85;45.64;102338.87;4438978;32;20090;-69
2021/08/24 05:30:22;;;;;;;7.15;3.90;;;;;;;25.75;45.83;102342.41;4423864;32;20188;-69
2021/08/24 05:32:49;;;;;;;8.18;3.55;;;;;;;25.98;45.52;102339.31;4435629;32;20025;-69
2021/08/24 05:35:16;;;;;;;5.32;3.40;;;;;;;26.07;45.35;102330.47;4437805;32;20068;-69
2021/08/24 05:37:42;;;;;;;7.25;3.67;;;;;;;26.04;45.00;102339.34;4437335;32;20053;-69
2021/08/24 05:40:10;;;;;;;5.62;3.60;;;;;;;26.03;45.08;102343.53;4436951;32;20060;-69
2021/08/24 05:42:35;;;;;;;7.72;3.45;;;;;;;26.01;45.17;102344.06;4439255;32;20021;-69
2021/08/24 05:45:02;;;;;;;4.75;3.50;;;;;;;26.11;44.96;102341.81;4439811;32;20056;-69
2021/08/24 05:47:29;;;;;;;5.65;3.58;;;;;;;26.08;44.76;102346.47;4433251;32;20089;-69
2021/08/24 05:49:55;;;;;;;9.90;3.67;;;;;;;26.17;44.88;102346.31;4437808;32;20443;-69
2021/08/24 05:52:21;;;;;;;12.57;3.70;;;;;;;26.26;44.79;102349.03;4435850;32;20093;-69
2021/08/24 05:54:49;;;;;;;5.78;2.97;;;;;;;26.27;44.39;102352.72;4439271;32;20137;-69
2021/08/24 05:57:17;;;;;;;7.57;2.40;;;;;;;25.84;44.78;102339.38;4437284;32;20057;-68
2021/08/24 05:59:42;;;;;;;8.15;2.90;;;;;;;25.91;44.60;102338.91;4438977;32;20136;-69
2021/08/24 06:02:08;;;;;;;8.32;2.83;;;;;;;26.07;44.65;102341.22;4434312;32;20453;-69
2021/08/24 06:04:35;;;;;;;5.62;2.53;;;;;;;26.27;44.27;102349.84;4435824;32;20046;-68
2021/08/24 06:07:01;;;;;;;9.45;2.65;;;;;;;26.44;43.54;102347.88;4424382;32;20029;-69
2021/08/24 06:09:27;;;;;;;5.65;2.53;;;;;;;26.37;43.40;102349.16;4437536;32;20432;-69
2021/08/24 06:11:53;;;;;;;6.70;1.87;;;;;;;26.60;42.98;102347.25;4437477;32;20118;-69
2021/08/24 06:14:21;;;;;;;5.80;1.80;;;;;;;26.50;43.05;102352.41;4435728;32;20496;-68
2021/08/24 06:16:47;;;;;;;4.40;1.67;;;;;;;26.69;42.31;102347.09;4441513;32;20064;-68
2021/08/24 06:19:13;;;;;;;5.03;1.80;;;;;;;26.77;42.24;102349.00;4436526;32;20120;-68
2021/08/24 06:21:39;;;;;;;4.55;1.80;;;;;;;26.71;42.35;102344.47;4424505;32;20044;-68
2021/08/24 06:24:07;;;;;;;5.62;1.60;;;;;;;26.67;42.30;102338.16;4436406;32;20512;-68
2021/08/24 06:26:33;;;;;;;2.92;1.75;;;;;;;26.87;41.93;102343.81;4439484;32;20085;-69
2021/08/24 06:28:59;;;;;;;3.70;1.67;;;;;;;26.96;41.65;102346.50;4440383;32;20048;-68
2021/08/24 06:31:27;;;;;;;5.10;1.77;;;;;;;27.09;41.77;102346.88;4437262;32;20068;-69
2021/08/24 06:33:54;;;;;;;6.00;2.53;;;;;;;27.27;41.10;102348.56;4437539;32;20125;-69
2021/08/24 06:36:21;;;;;;;3.85;2.08;;;;;;;27.11;41.14;102350.81;4436262;32;20461;-69
2021/08/24 06:38:47;;;;;;;8.52;2.62;;;;;;;27.26;40.95;102346.97;4437813;32;20052;-69
2021/08/24 06:41:15;;;;;;;3.60;2.22;;;;;;;27.16;40.94;102343.50;4438783;32;20524;-69
2021/08/24 06:43:41;;;;;;;7.00;2.90;;;;;;;27.10;40.78;102349.25;4437599;32;20136;-69
2021/08/24 06:46:07;;;;;;;10.80;3.28;;;;;;;27.31;41.11;102343.34;4436356;32;20041;-69
2021/08/24 06:48:33;;;;;;;6.20;2.80;;;;;;;27.39;40.74;102333.66;4421403;32;20192;-69
2021/08/24 06:50:59;;;;;;;6.47;3.00;;;;;;;27.55;40.54;102343.72;4436288;32;20038;-69
2021/08/24 06:53:25;;;;;;;8.38;3.50;;;;;;;27.61;40.56;102335.88;4437028;32;20042;-69
2021/08/24 06:55:51;;;;;;;14.02;5.60;;;;;;;27.86;40.11;102338.63;4435023;32;20426;-69
2021/08/24 06:58:18;;;;;;;15.80;6.40;;;;;;;28.09;39.66;102333.66;4437894;32;20097;-69
2021/08/24 07:00:46;;;;;;;13.60;6.40;;;;;;;27.94;39.09;102333.88;4434361;32;20045;-68
2021/08/24 07:03:13;;;;;;;15.30;7.43;;;;;;;28.14;38.42;102344.47;4436710;32;20073;-69
2021/08/24 07:05:42;;;;;;;17.35;7.35;;;;;;;28.11;38.56;102340.53;4437349;32;20105;-69
2021/08/24 07:08:08;;;;;;;18.58;7.85;;;;;;;28.43;38.60;102347.66;4437463;32;20407;-69
2021/08/24 07:10:34;;;;;;;17.42;7.87;;;;;;;28.24;38.58;102345.78;4435353;32;20034;-69
2021/08/24 07:12:59;;;;;;;15.80;6.35;;;;;;;28.52;38.25;102344.53;4439475;32;20037;-69
2021/08/24 07:15:25;;;;;;;16.52;7.55;;;;;;;28.49;37.44;102336.09;4432293;32;20113;-69
2021/08/24 07:17:54;;;;;;;19.75;7.20;;;;;;;28.71;37.17;102347.69;4439821;32;20080;-69
2021/08/24 07:20:21;;;;;;;16.52;7.05;;;;;;;28.80;37.66;102354.00;4434740;32;20041;-69
2021/08/24 07:22:47;;;;;;;17.15;8.00;;;;;;;28.81;37.67;102352.69;4436910;32;20064;-69
2021/08/24 07:25:16;;;;;;;16.20;7.70;;;;;;;28.83;37.39;102346.34;4433014;32;20464;-69
2021/08/24 07:27:41;;;;;;;19.48;7.07;;;;;;;28.79;37.17;102343.75;4437549;32;20056;-69
2021/08/24 07:30:09;;;;;;;15.85;6.15;;;;;;;28.56;37.57;102353.75;4437360;32;20753;-69
2021/08/24 07:32:35;;;;;;;13.48;4.37;;;;;;;28.64;37.22;102363.50;4432474;32;20399;-69
2021/08/24 07:35:02;;;;;;;8.63;3.60;;;;;;;28.71;37.02;102373.75;4437294;32;20017;-69
2021/08/24 07:37:27;;;;;;;8.73;3.92;;;;;;;28.81;36.87;102363.50;4438198;32;20060;-69
2021/08/24 07:39:53;;;;;;;11.10;4.55;;;;;;;28.47;37.34;102374.28;4438195;32;20046;-69
2021/08/24 07:42:18;;;;;;;9.25;3.25;;;;;;;28.50;37.49;102367.44;4436683;32;20133;-68
2021/08/24 07:44:44;;;;;;;7.75;2.85;;;;;;;28.24;37.77;102366.88;4435711;32;20072;-69
2021/08/24 07:47:10;;;;;;;6.65;2.62;;;;;;;28.77;36.97;102374.56;4435155;32;20139;-69
2021/08/24 07:49:38;;;;;;;13.90;3.00;;;;;;;28.56;37.00;102374.03;4431738;32;20026;-69
2021/08/24 07:52:06;;;;;;;6.72;2.10;;;;;;;28.88;36.61;102383.25;4435598;32;20459;-69
2021/08/24 07:54:33;;;;;;;2.72;1.42;;;;;;;28.58;37.02;102382.19;4435610;32;20394;-69
2021/08/24 07:57:00;;;;;;;4.75;1.65;;;;;;;28.33;37.63;102374.50;4433792;32;20553;-69
2021/08/24 07:59:25;;;;;;;5.97;2.70;;;;;;;27.88;38.38;102388.06;4436235;32;20078;-69
2021/08/24 08:01:53;;;;;;;7.50;2.03;;;;;;;28.10;38.08;102388.12;4436818;32;20030;-69
2021/08/24 08:04:21;;;;;;;4.90;2.37;;;;;;;28.01;38.62;102394.16;4439626;32;20033;-69
2021/08/24 08:06:47;;;;;;;10.38;3.08;;;;;;;28.13;38.08;102383.41;4437567;32;20090;-69
2021/08/24 08:09:13;;;;;;;8.18;3.40;;;;;;;28.11;37.77;102389.72;4439968;32;20497;-69
2021/08/24 08:11:39;;;;;;;8.82;3.72;;;;;;;28.38;37.79;102394.78;4440256;32;20369;-69
2021/08/24 08:14:07;;;;;;;12.48;5.03;;;;;;;28.59;37.26;102399.03;4437930;32;20068;-69
2021/08/24 08:16:35;;;;;;;8.90;4.75;;;;;;;28.74;37.15;102402.50;4441135;32;20073;-69
2021/08/24 08:19:02;;;;;;;14.45;5.55;;;;;;;28.98;36.88;102404.84;4442178;32;20140;-69
2021/08/24 08:21:30;;;;;;;13.38;5.93;;;;;;;28.83;37.18;102405.12;4435733;32;20101;-69
2021/08/24 08:23:56;;;;;;;8.73;5.40;;;;;;;28.97;36.81;102409.06;4438076;32;20315;-69
2021/08/24 08:26:22;;;;;;;10.32;5.87;;;;;;;28.03;38.01;102408.91;4421700;32;20504;-69
2021/08/24 08:28:50;;;;;;;8.10;5.07;;;;;;;28.16;38.40;102415.00;4439123;32;20077;-69
2021/08/24 08:31:18;;;;;;;9.18;3.90;;;;;;;28.47;37.75;102408.28;4434648;32;20030;-69
2021/08/24 08:33:44;;;;;;;8.88;4.70;;;;;;;28.35;37.90;102416.09;4437240;32;20091;-69
2021/08/24 08:36:10;;;;;;;5.93;3.75;;;;;;;28.27;38.00;102406.34;4435088;32;20370;-69
2021/08/24 08:38:36;;;;;;;6.70;3.83;;;;;;;28.23;38.16;102408.72;4436199;32;20208;-69
2021/08/24 08:41:06;;;;;;;5.18;3.12;;;;;;;28.60;37.46;102411.44;4433825;32;20033;-69
2021/08/24 08:57:13;;;;;;;12.07;3.30;;;;;;;29.77;35.84;102402.09;3983958;32;15023995;-70
2021/08/24 09:05:01;;;;;;;8.80;3.12;;;;;;;30.03;35.28;102407.53;3995833;31;15019771;-68
2021/08/24 09:10:06;;;;;;;5.97;3.30;;;;;;;29.81;35.30;102407.59;3955913;32;15734221;-68
2021/08/24 09:12:35;;;;;;;6.15;2.97;;;;;;;29.81;35.30;102407.59;4431178;32;20069;-68
2021/08/24 09:15:04;;;;;;;13.30;3.65;;;;;;;29.55;35.84;102412.94;4430808;32;20057;-69
2021/08/24 09:17:35;;;;;;;10.80;3.97;;;;;;;29.42;36.19;102404.03;4417690;32;20095;-68
2021/08/24 09:22:40;;;;;;;8.98;3.97;;;;;;;29.57;36.66;102413.22;4001816;31;15016585;-68
2021/08/24 09:25:10;;;;;;;11.32;4.57;;;;;;;29.57;36.66;102413.22;4441005;32;20062;-69
2021/08/24 09:30:12;;;;;;;10.18;4.10;;;;;;;30.10;35.48;102412.75;4004636;31;15058825;-68
2021/08/24 09:32:38;;;;;;;6.18;4.05;;;;;;;30.10;35.48;102412.75;4463014;32;20036;-69
2021/08/24 09:37:42;;;;;;;10.55;3.92;;;;;;;30.18;35.04;102408.78;3987697;32;15025563;-69
2021/08/24 09:40:10;;;;;;;9.52;4.37;;;;;;;30.18;35.04;102408.78;4436807;32;20626;-69
2021/08/24 09:50:42;;;;;;;10.30;5.60;;;;;;;30.28;35.37;102401.31;3985416;32;15024574;-69
2021/08/24 09:53:39;;;;;;;13.60;6.05;;;;;;;30.28;35.37;102401.31;4436621;32;20096;-68
2021/08/24 09:56:07;;;;;;;9.93;5.43;;;;;;;30.61;34.47;102397.38;4435548;32;20052;-68
2021/08/24 09:58:37;;;;;;;11.18;5.78;;;;;;;30.49;34.43;102405.41;4433860;32;20029;-68
2021/08/24 10:01:08;;;;;;;7.57;4.95;;;;;;;30.73;34.05;102402.59;4440413;32;20356;-69
2021/08/24 10:06:30;;;;;;;6.97;4.57;;;;;;;31.51;33.34;102414.31;3983088;32;15025468;-69
2021/08/24 10:09:13;;;;;;;6.72;3.87;;;;;;;31.51;33.34;102414.31;4439950;32;20052;-69
2021/08/24 10:11:39;;;;;;;10.05;3.75;;;;;;;31.27;33.43;102408.47;4435649;32;20069;-69
2021/08/24 10:16:51;;;;;;;7.35;4.50;;;;;;;32.88;31.24;102410.06;4010868;31;15018978;-69
2021/08/24 10:19:24;;;;;;;7.07;4.45;;;;;;;32.88;31.24;102410.06;4466767;32;20084;-68
2021/08/24 10:27:06;;;;;;;5.57;3.80;;;;;;;33.87;29.09;102402.34;4000843;31;15019858;-69
2021/08/24 10:29:35;;;;;;;9.63;3.87;;;;;;;33.87;29.09;102402.34;4457209;32;20386;-68
2021/08/24 10:32:06;;;;;;;8.15;3.97;;;;;;;33.64;28.98;102402.00;4456322;32;20571;-68
2021/08/24 10:34:39;;;;;;;12.07;3.80;;;;;;;33.86;28.76;102395.66;4456629;32;20067;-68
2021/08/24 10:46:07;;;;;;;7.68;3.80;;;;;;;33.61;29.16;102397.28;3963240;32;15028348;-68
2021/08/24 10:48:34;;;;;;;7.85;3.87;;;;;;;33.61;29.16;102397.28;4419666;32;20030;-68
2021/08/24 11:01:44;;;;;;;8.35;3.17;;;;;;;33.85;28.27;102382.41;3983746;32;15041710;-68
2021/08/24 11:12:48;;;;;;;6.45;3.05;;;;;;;32.82;29.49;102372.19;3959113;32;15018888;-68
2021/08/24 11:15:40;;;;;;;6.55;3.05;;;;;;;32.82;29.49;102372.19;4408354;32;20056;-68
2021/08/24 11:23:39;;;;;;;8.85;4.10;;;;;;;31.93;30.98;102381.50;3983358;32;15025287;-69
2021/08/24 11:34:09;;;;;;;6.70;3.92;;;;;;;31.98;30.56;102374.81;4000885;31;15036455;-69
2021/08/24 11:36:43;;;;;;;6.40;3.95;;;;;;;31.98;30.56;102374.81;4454908;32;20391;-68
2021/08/24 11:39:17;;;;;;;7.95;3.78;;;;;;;31.34;31.71;102367.12;4459138;32;20370;-68
2021/08/24 11:41:45;;;;;;;9.07;3.67;;;;;;;31.35;31.60;102368.69;4452511;32;20036;-68
2021/08/24 11:44:24;;;;;;;11.38;4.55;;;;;;;31.25;31.80;102370.38;4453185;32;20037;-68
2021/08/24 11:55:17;;;;;;;7.37;3.67;;;;;;;33.07;29.49;102376.53;3987526;32;15022333;-68
2021/08/24 11:58:23;;;;;;;7.68;3.15;;;;;;;33.07;29.49;102376.53;4439971;32;20390;-68
2021/08/24 12:00:52;;;;;;;6.75;3.10;;;;;;;33.05;29.47;102372.59;4438831;32;20458;-68
2021/08/24 12:03:21;;;;;;;5.40;3.33;;;;;;;32.89;29.52;102373.72;4441596;32;20046;-68
2021/08/24 12:05:56;;;;;;;5.93;3.35;;;;;;;32.93;29.57;102369.13;4437750;32;20025;-68
2021/08/24 12:08:26;;;;;;;6.53;4.12;;;;;;;33.04;29.58;102374.72;4436723;32;20073;-68
2021/08/24 12:11:01;;;;;;;6.47;3.70;;;;;;;33.27;29.44;102369.25;4438019;32;20033;-68
2021/08/24 12:13:31;;;;;;;4.68;3.47;;;;;;;33.40;28.76;102369.28;4438738;32;20076;-68
2021/08/24 12:16:23;;;;;;;4.60;3.15;;;;;;;33.62;28.16;102366.72;4439880;32;20407;-68
2021/08/24 12:18:52;;;;;;;9.57;4.82;;;;;;;33.46;28.28;102370.78;4437221;32;20120;-68
2021/08/24 12:40:51;;;;;;;5.45;3.67;;;;;;;33.19;28.81;102368.38;3981568;32;15023470;-69
2021/08/24 12:51:54;;;;;;;9.95;3.97;;;;;;;32.81;29.27;102355.25;3982279;32;15033656;-68
2021/08/24 12:54:24;;;;;;;6.75;3.95;;;;;;;32.81;29.27;102355.25;4432282;32;20037;-69
2021/08/24 13:02:31;;;;;;;10.43;3.72;;;;;;;32.63;29.38;102356.13;3997817;31;15016709;-67
2021/08/24 13:08:20;;;;;;;11.88;4.30;;;;;;;32.41;29.98;102348.50;3998620;31;15025332;-70
2021/08/24 13:10:48;;;;;;;7.75;4.57;;;;;;;32.41;29.98;102348.50;4454682;32;20060;-69
2021/08/24 13:18:47;;;;;;;6.28;4.10;;;;;;;32.51;30.05;102341.72;3980279;32;15023713;-70
2021/08/24 13:27:05;;;;;;;8.07;4.57;;;;;;;33.11;29.15;102336.16;3978248;32;15035958;-71
2021/08/24 13:29:39;;;;;;;8.85;4.82;;;;;;;33.11;29.15;102336.16;4421833;32;20080;-70
2021/08/24 13:32:44;;;;;;;10.70;4.10;;;;;;;32.77;29.52;102334.38;4435305;32;20230;-68
2021/08/24 13:35:29;;;;;;;10.95;4.70;;;;;;;32.90;29.25;102328.59;4433310;32;20042;-69
2021/08/24 13:38:26;;;;;;;9.70;4.35;;;;;;;32.79;29.47;102331.72;4437131;32;20076;-69
2021/08/24 13:40:55;;;;;;;6.72;4.15;;;;;;;32.78;29.41;102325.06;4432865;32;20057;-69
2021/08/24 13:43:25;;;;;;;10.70;4.30;;;;;;;32.81;29.40;102321.03;4429090;32;20094;-69
2021/08/24 13:45:53;;;;;;;8.25;4.32;;;;;;;32.67;29.69;102317.31;4434137;32;20150;-68
2021/08/24 13:48:30;;;;;;;9.55;4.40;;;;;;;32.64;29.79;102320.53;4434379;32;20256;-68
2021/08/24 13:53:48;;;;;;;13.68;6.25;;;;;;;32.37;30.65;102310.16;3985055;32;15030307;-69
2021/08/24 13:56:14;;;;;;;12.35;4.62;;;;;;;32.37;30.65;102310.16;4438425;32;20068;-69
2021/08/24 13:58:41;;;;;;;13.43;4.35;;;;;;;31.69;31.02;102313.78;4436932;32;20416;-69
2021/08/24 14:09:13;;;;;;;10.32;4.45;;;;;;;31.63;31.47;102304.34;3984297;32;15024599;-70
2021/08/24 14:11:40;;;;;;;12.43;3.78;;;;;;;31.63;31.47;102304.34;4435358;32;20084;-68
2021/08/24 14:14:07;;;;;;;11.02;3.85;;;;;;;31.04;32.17;102298.72;4437442;32;20091;-68
2021/08/24 14:16:36;;;;;;;8.10;4.05;;;;;;;31.18;32.05;102298.28;4437573;32;20092;-68
2021/08/24 14:19:30;;;;;;;10.70;4.60;;;;;;;31.36;31.67;102294.66;4439182;32;20080;-68
2021/08/24 14:22:00;;;;;;;11.68;5.12;;;;;;;31.53;31.09;102303.94;4439304;32;20237;-68
2021/08/24 14:24:28;;;;;;;10.23;4.70;;;;;;;31.47;31.40;102302.44;4439709;32;20164;-68
2021/08/24 14:26:54;;;;;;;10.45;4.15;;;;;;;31.50;31.48;102299.22;4438651;32;20055;-68
2021/08/24 14:29:23;;;;;;;8.45;3.70;;;;;;;31.40;31.63;102298.03;4436829;32;20541;-68
2021/08/24 14:31:54;;;;;;;9.50;4.40;;;;;;;31.78;31.29;102302.53;4436061;32;20077;-68
2021/08/24 14:34:23;;;;;;;7.75;5.03;;;;;;;31.77;31.23;102294.34;4439539;32;20086;-68
2021/08/24 14:39:40;;;;;;;11.07;4.03;;;;;;;32.73;30.16;102296.03;3982882;32;15028606;-69
2021/08/24 14:42:09;;;;;;;11.18;3.75;;;;;;;32.73;30.16;102296.03;4435596;32;20045;-69
2021/08/24 14:49:58;;;;;;;10.18;3.40;;;;;;;32.79;29.15;102287.97;4008569;31;15017707;-69
2021/08/24 14:55:18;;;;;;;9.32;2.83;;;;;;;33.32;28.49;102280.81;3982560;32;15023207;-68
2021/08/24 14:58:02;;;;;;;4.15;3.05;;;;;;;33.32;28.49;102280.81;4433062;32;20021;-68
2021/08/24 15:13:26;;;;;;;4.97;2.50;;;;;;;33.18;28.83;102265.44;4005301;31;15018443;-69